Time;durP1;ratioP1;P1;durP2;ratioP2;P2;SDS_P1;SDS_P2;PMS_P1;PMS_P2;Temp;Humidity;BMP_temperature;BMP_pressure;BME280_temperature;BME280_humidity;BME280_pressure;Samples;Min_cycle;Max_cycle;Signal;HPM_P1;HPM_P2
2022/06/13 00:00:30;;;;;;;7.17;4.90;;;;;;;;;;5032010;28;20455;-88
2022/06/13 00:02:58;;;;;;;3.03;2.73;;;;;;;;;;5036703;28;20857;-88
2022/06/13 00:05:25;;;;;;;7.83;6.87;;;;;;;;;;5035475;28;20457;-90
2022/06/13 00:07:52;;;;;;;4.73;3.37;;;;;;;;;;5036904;28;20448;-90
2022/06/13 00:10:22;;;;;;;3.30;3.00;;;;;;;;;;5036865;28;20448;-89
2022/06/13 00:12:51;;;;;;;5.17;3.70;;;;;;;;;;5036534;28;20473;-88
2022/06/13 00:15:18;;;;;;;3.43;3.13;;;;;;;;;;5033810;28;20439;-89
2022/06/13 00:17:47;;;;;;;5.10;4.13;;;;;;;;;;5037148;28;20494;-87
2022/06/13 00:20:15;;;;;;;11.20;5.40;;;16.40;99.90;;;;;;5035893;28;20443;-89
2022/06/13 00:22:42;;;;;;;3.10;2.50;;;;;;;;;;5037077;28;20499;-87
2022/06/13 00:25:11;;;;;;;4.20;2.97;;;;;;;;;;5032723;28;20474;-89
2022/06/13 00:27:39;;;;;;;4.83;3.00;;;;;;;;;;5036787;28;20455;-91
2022/06/13 00:30:10;;;;;;;6.43;2.60;;;16.30;99.90;;;;;;5036945;28;20531;-88
2022/06/13 00:32:37;;;;;;;5.83;3.10;;;;;;;;;;5037063;28;20451;-90
2022/06/13 00:35:06;;;;;;;5.70;3.90;;;;;;;;;;5035961;28;20439;-89
2022/06/13 00:37:34;;;;;;;4.17;2.93;;;;;;;;;;5036041;28;20448;-90
2022/06/13 00:40:01;;;;;;;8.13;2.63;;;;;;;;;;5036518;28;20456;-88
2022/06/13 00:42:29;;;;;;;4.03;2.80;;;;;;;;;;5036329;28;20520;-88
2022/06/13 00:45:17;;;;;;;4.73;2.90;;;16.30;99.90;;;;;;5033390;28;20471;-88
2022/06/13 00:47:45;;;;;;;4.47;2.73;;;16.30;99.90;;;;;;5036562;28;20443;-88
2022/06/13 00:50:22;;;;;;;5.90;4.73;;;16.30;99.90;;;;;;5035062;28;20444;-87
2022/06/13 00:52:53;;;;;;;4.93;3.07;;;16.40;99.90;;;;;;5036413;28;20450;-89
2022/06/13 00:55:28;;;;;;;15.43;9.00;;;16.20;99.90;;;;;;5034548;28;20447;-90
2022/06/13 00:57:56;;;;;;;6.17;3.00;;;16.20;99.90;;;;;;5037092;28;20445;-89
2022/06/13 01:00:23;;;;;;;6.20;3.20;;;;;;;;;;5036534;28;20497;-87
2022/06/13 01:02:51;;;;;;;3.97;3.43;;;16.20;99.90;;;;;;5037222;28;20993;-90
2022/06/13 01:05:27;;;;;;;6.60;4.87;;;16.20;99.90;;;;;;5037486;28;20454;-87
2022/06/13 01:07:55;;;;;;;3.13;2.83;;;;;;;;;;5037602;28;20470;-86
2022/06/13 01:13:10;;;;;;;3.50;2.50;;;16.70;99.90;;;;;;5035908;28;20941;-86
2022/06/13 01:15:52;;;;;;;3.13;2.83;;;16.30;99.90;;;;;;5036391;28;20482;-86
2022/06/13 01:18:45;;;;;;;2.90;2.60;;;16.20;99.90;;;;;;5034916;28;20440;-87
2022/06/13 01:21:21;;;;;;;3.67;3.17;;;16.20;99.90;;;;;;5032720;28;20445;-92
2022/06/13 01:24:27;;;;;;;3.03;2.73;;;16.30;99.90;;;;;;5037275;28;20459;-87
2022/06/13 01:27:25;;;;;;;3.07;2.77;;;16.20;99.90;;;;;;5029517;28;20458;-86
2022/06/13 01:29:59;;;;;;;2.80;2.60;;;16.20;99.90;;;;;;5036990;28;20546;-92
2022/06/13 01:32:52;;;;;;;4.80;2.87;;;16.30;99.90;;;;;;5037403;28;20447;-87
2022/06/13 01:35:30;;;;;;;3.80;3.50;;;16.10;99.90;;;;;;5032999;28;20444;-90
2022/06/13 01:38:08;;;;;;;9.47;2.60;;;16.10;99.90;;;;;;5036920;28;20483;-89
2022/06/13 01:40:51;;;;;;;5.17;3.63;;;16.20;99.90;;;;;;5036688;28;20526;-93
2022/06/13 01:43:26;;;;;;;4.57;3.30;;;16.10;99.90;;;;;;5036040;28;21025;-87
2022/06/13 01:46:02;;;;;;;3.60;3.17;;;16.00;99.90;;;;;;5036695;28;20454;-87
2022/06/13 01:48:36;;;;;;;2.97;2.70;;;16.00;99.90;;;;;;5037775;28;20461;-89
2022/06/13 01:51:13;;;;;;;2.90;2.60;;;16.00;99.90;;;;;;5036329;28;20470;-94
2022/06/13 01:53:48;;;;;;;6.30;4.07;;;16.00;99.90;;;;;;5032148;28;21090;-87
2022/06/13 01:56:18;;;;;;;3.80;2.60;;;16.10;99.90;;;;;;5037275;28;20448;-88
2022/06/13 01:58:50;;;;;;;3.20;2.60;;;16.00;99.90;;;;;;5030142;28;20951;-86
2022/06/13 02:01:25;;;;;;;5.70;3.50;;;16.10;99.90;;;;;;5037432;28;20502;-91
2022/06/13 02:03:59;;;;;;;2.50;2.30;;;16.10;99.90;;;;;;5033601;28;20462;-88
2022/06/13 02:06:31;;;;;;;3.13;2.57;;;16.20;99.90;;;;;;5031779;28;20447;-88
2022/06/13 02:09:01;;;;;;;2.90;2.70;;;16.00;99.90;;;;;;5035817;28;20451;-87
2022/06/13 02:11:33;;;;;;;2.70;2.50;;;16.00;99.90;;;;;;5031990;28;20494;-86
2022/06/13 02:14:04;;;;;;;2.57;2.30;;;16.00;99.90;;;;;;5035150;28;20444;-86
2022/06/13 02:16:36;;;;;;;2.73;2.37;;;16.10;99.90;;;;;;5035158;28;20458;-88
2022/06/13 02:19:12;;;;;;;3.57;2.60;;;16.00;99.90;;;;;;5035002;28;20868;-86
2022/06/13 02:21:44;;;;;;;2.87;2.47;;;16.00;99.90;;;;;;5033307;28;20844;-87
2022/06/13 02:24:23;;;;;;;3.47;2.80;;;16.00;99.90;;;;;;5033862;28;20796;-86
2022/06/13 02:26:53;;;;;;;2.47;2.27;;;;;;;;;;5034805;28;20483;-87
2022/06/13 02:29:25;;;;;;;3.40;2.77;;;16.00;99.90;;;;;;5034406;28;20510;-86
2022/06/13 02:31:56;;;;;;;3.50;3.07;;;16.10;99.90;;;;;;5034440;28;20455;-87
2022/06/13 02:34:28;;;;;;;3.60;2.70;;;16.00;99.90;;;;;;5034293;28;20443;-86
2022/06/13 02:36:58;;;;;;;3.20;2.43;;;16.00;99.90;;;;;;5030015;28;20483;-87
2022/06/13 02:39:31;;;;;;;4.70;2.60;;;16.00;99.90;;;;;;5034434;28;20448;-88
2022/06/13 02:42:01;;;;;;;2.63;2.43;;;15.90;99.90;;;;;;5028981;28;20500;-88
2022/06/13 02:44:34;;;;;;;3.30;2.87;;;16.00;99.90;;;;;;5034174;28;20444;-87
2022/06/13 02:47:09;;;;;;;4.07;2.83;;;15.90;99.90;;;;;;5031403;28;20466;-87
2022/06/13 02:49:42;;;;;;;3.03;2.03;;;15.80;99.90;;;;;;5034469;28;20520;-87
2022/06/13 02:52:15;;;;;;;2.97;2.60;;;15.80;99.90;;;;;;5033054;28;20456;-87
2022/06/13 02:54:48;;;;;;;4.63;2.13;;;15.70;99.90;;;;;;5034414;28;20947;-87
2022/06/13 02:57:35;;;;;;;4.47;2.70;;;15.70;99.90;;;;;;5034357;28;20443;-87
2022/06/13 03:00:25;;;;;;;2.87;2.57;;;15.70;99.90;;;;;;5034179;28;20467;-87
2022/06/13 03:03:10;;;;;;;3.03;2.30;;;15.70;99.90;;;;;;5026149;28;21040;-87
2022/06/13 03:05:47;;;;;;;3.90;2.27;;;15.60;99.90;;;;;;5032964;28;20471;-87
2022/06/13 03:08:37;;;;;;;2.93;2.60;;;15.70;99.90;;;;;;5028350;28;20447;-86
2022/06/13 03:11:23;;;;;;;4.50;2.40;;;15.60;99.90;;;;;;5033929;28;20447;-86
2022/06/13 03:13:58;;;;;;;3.70;2.00;;;15.60;99.90;;;;;;5030768;28;20459;-88
2022/06/13 03:16:30;;;;;;;2.77;2.23;;;15.60;99.90;;;;;;5033885;28;20447;-86
2022/06/13 03:19:04;;;;;;;3.10;2.47;;;15.50;99.90;;;;;;5033849;28;20447;-87
2022/06/13 03:21:38;;;;;;;2.43;2.03;;;15.50;99.90;;;;;;5033050;28;20951;-87
2022/06/13 03:24:13;;;;;;;2.60;2.40;;;15.40;99.90;;;;;;5031149;28;20446;-87
2022/06/13 03:26:46;;;;;;;2.97;2.10;;;15.40;99.90;;;;;;5030564;28;20444;-87
2022/06/13 03:29:17;;;;;;;3.07;2.63;;;15.30;99.90;;;;;;5034148;28;20447;-86
2022/06/13 03:31:49;;;;;;;4.10;2.13;;;15.30;99.90;;;;;;5029745;28;20455;-86
2022/06/13 03:34:20;;;;;;;3.17;2.80;;;15.20;99.90;;;;;;5033660;28;20451;-87
2022/06/13 03:36:54;;;;;;;4.60;2.57;;;15.10;99.90;;;;;;5029760;28;20443;-87
2022/06/13 03:39:25;;;;;;;3.10;2.63;;;15.00;99.90;;;;;;5030389;28;20479;-87
2022/06/13 03:42:02;;;;;;;3.83;2.73;;;15.00;99.90;;;;;;5033547;28;20807;-86
2022/06/13 03:44:34;;;;;;;3.80;2.57;;;14.90;99.90;;;;;;5033620;28;20447;-86
2022/06/13 03:47:09;;;;;;;3.93;2.40;;;14.80;99.90;;;;;;5031233;28;20443;-86
2022/06/13 03:49:42;;;;;;;8.87;3.20;;;14.70;99.90;;;;;;5033783;28;20467;-87
2022/06/13 03:52:14;;;;;;;7.87;3.30;;;15.00;99.90;;;;;;5029611;28;20802;-86
2022/06/13 03:54:45;;;;;;;3.57;2.40;;;14.60;99.90;;;;;;5033552;28;20444;-86
2022/06/13 03:57:16;;;;;;;4.07;2.80;;;14.70;99.90;;;;;;5029919;28;20481;-87
2022/06/13 03:59:48;;;;;;;3.67;2.30;;;14.60;99.90;;;;;;5034996;28;20451;-87
2022/06/13 04:02:19;;;;;;;5.97;2.90;;;14.60;99.90;;;;;;5033262;28;20979;-88
2022/06/13 04:04:49;;;;;;;10.23;3.23;;;14.60;99.90;;;;;;5033371;28;20451;-86
2022/06/13 04:07:19;;;;;;;4.40;2.60;;;14.60;99.90;;;;;;5032287;28;20448;-87
2022/06/13 04:09:49;;;;;;;5.30;2.73;;;14.50;99.90;;;;;;5033141;28;20451;-87
2022/06/13 04:12:30;;;;;;;3.20;2.60;;;14.60;99.90;;;;;;5030576;28;20459;-87
2022/06/13 04:15:26;;;;;;;12.83;3.20;;;14.50;99.90;;;;;;5029239;28;20447;-87
2022/06/13 04:18:02;;;;;;;6.60;2.70;;;14.40;99.90;;;;;;5033222;28;20440;-87
2022/06/13 04:20:38;;;;;;;11.07;3.90;;;14.50;99.90;;;;;;5028862;28;20475;-87
2022/06/13 04:23:17;;;;;;;3.93;2.77;;;14.40;99.90;;;;;;5031212;28;20490;-87
2022/06/13 04:25:48;;;;;;;5.37;2.80;;;14.40;99.90;;;;;;5031277;28;20463;-86
2022/06/13 04:28:22;;;;;;;4.80;2.20;;;14.40;99.90;;;;;;5033320;28;20467;-87
2022/06/13 04:30:51;;;;;;;7.70;2.40;;;14.30;99.90;;;;;;5030247;28;20497;-87
2022/06/13 04:33:21;;;;;;;4.33;2.33;;;14.30;99.90;;;;;;5029348;28;20451;-87
2022/06/13 04:35:49;;;;;;;6.63;2.40;;;14.40;99.90;;;;;;5031839;28;20935;-87
2022/06/13 04:38:21;;;;;;;9.40;2.50;;;14.40;99.90;;;;;;5026780;28;20860;-86
2022/06/13 04:40:51;;;;;;;6.37;2.53;;;14.30;99.90;;;;;;5033234;28;20452;-86
2022/06/13 04:43:21;;;;;;;5.67;2.60;;;14.40;99.90;;;;;;5032981;28;20487;-87
2022/06/13 04:45:51;;;;;;;5.97;3.10;;;14.40;99.90;;;;;;5025991;28;20452;-86
2022/06/13 04:48:19;;;;;;;3.97;2.40;;;;;;;;;;5035949;28;20458;-88
2022/06/13 04:50:49;;;;;;;3.70;2.57;;;14.50;99.90;;;;;;5035626;28;20471;-88
2022/06/13 04:53:19;;;;;;;4.30;3.23;;;14.50;99.90;;;;;;5036801;28;20447;-86
2022/06/13 04:55:48;;;;;;;4.57;2.90;;;14.40;99.90;;;;;;5036564;28;20961;-86
2022/06/13 04:58:27;;;;;;;10.63;3.27;;;14.40;99.90;;;;;;5036652;28;20447;-87
2022/06/13 05:01:01;;;;;;;4.70;3.10;;;14.40;99.90;;;;;;5036171;28;20486;-85
2022/06/13 05:03:31;;;;;;;3.70;3.00;;;14.50;99.90;;;;;;5032262;28;20486;-86
2022/06/13 05:06:04;;;;;;;7.63;3.37;;;14.50;99.90;;;;;;5032243;28;20450;-86
2022/06/13 05:08:35;;;;;;;5.20;2.87;;;14.60;99.90;;;;;;5001418;28;20451;-85
2022/06/13 05:11:08;;;;;;;4.47;2.80;;;14.70;99.90;;;;;;5032008;28;20474;-86
2022/06/13 05:13:35;;;;;;;4.20;2.73;;;;;;;;;;5035828;28;20854;-84
2022/06/13 05:16:14;;;;;;;5.83;3.13;;;14.70;99.90;;;;;;5036092;28;20447;-85
2022/06/13 05:18:55;;;;;;;4.67;3.33;;;14.80;99.90;;;;;;5033917;28;20447;-85
2022/06/13 05:21:43;;;;;;;7.53;2.93;;;14.80;99.90;;;;;;5035265;28;20447;-83
2022/06/13 05:24:32;;;;;;;5.20;2.80;;;14.90;99.90;;;;;;5031807;28;20490;-85
2022/06/13 05:27:01;;;;;;;9.27;3.20;;;;;;;;;;5035718;28;20450;-84
2022/06/13 05:29:28;;;;;;;4.73;2.50;;;;;;;;;;5035369;28;20456;-88
2022/06/13 05:31:56;;;;;;;4.17;2.97;;;15.40;99.90;;;;;;5031498;28;20454;-84
2022/06/13 05:34:29;;;;;;;7.37;3.90;;;15.60;99.90;;;;;;5035425;28;20949;-84
2022/06/13 05:36:56;;;;;;;4.60;3.23;;;;;;;;;;5034099;28;20842;-85
2022/06/13 05:39:25;;;;;;;5.83;2.77;;;;;;;;;;5035322;28;20524;-83
2022/06/13 05:41:52;;;;;;;5.53;2.60;;;;;;;;;;5032319;28;20436;-84
2022/06/13 05:44:19;;;;;;;3.00;2.30;;;;;;;;;;5032229;28;20510;-84
2022/06/13 05:46:46;;;;;;;5.67;2.90;;;;;;;;;;5035102;28;20447;-84
2022/06/13 05:49:14;;;;;;;4.00;2.67;;;17.30;99.90;;;;;;5031073;28;20475;-84
2022/06/13 05:51:42;;;;;;;4.40;2.50;;;;;;;;;;5033921;28;20447;-83
2022/06/13 05:54:10;;;;;;;5.60;2.87;;;;;;;;;;5035031;28;20805;-86
2022/06/13 05:56:39;;;;;;;5.63;2.57;;;;;;;;;;5034936;28;20443;-86
2022/06/13 05:59:07;;;;;;;5.00;3.00;;;;;;;;;;5033803;28;20483;-84
2022/06/13 06:01:35;;;;;;;5.20;2.67;;;;;;;;;;5031982;28;20506;-86
2022/06/13 06:04:09;;;;;;;4.93;2.87;;;17.80;99.90;;;;;;5031486;28;20557;-87
2022/06/13 06:06:38;;;;;;;4.70;2.53;;;;;;;;;;5030681;28;20514;-88
2022/06/13 06:09:06;;;;;;;5.10;2.77;;;17.90;99.90;;;;;;5034804;28;20454;-88
2022/06/13 06:11:36;;;;;;;5.20;3.13;;;;;;;;;;5034664;28;20935;-85
2022/06/13 06:14:04;;;;;;;5.23;2.50;;;17.70;99.90;;;;;;5034887;28;20526;-89
2022/06/13 06:16:31;;;;;;;5.90;3.67;;;;;;;;;;5035342;28;20451;-90
2022/06/13 06:18:59;;;;;;;2.87;2.03;;;;;;;;;;5033760;28;20448;-89
2022/06/13 06:21:26;;;;;;;5.10;2.70;;;;;;;;;;5031131;28;20451;-90
2022/06/13 06:23:53;;;;;;;7.53;3.30;;;;;;;;;;5028120;28;20529;-91
2022/06/13 06:26:23;;;;;;;4.90;2.70;;;18.40;99.90;;;;;;5036217;28;20451;-86
2022/06/13 06:28:50;;;;;;;3.80;2.33;;;;;;;;;;5037145;28;20455;-91
2022/06/13 06:31:19;;;;;;;6.47;2.70;;;18.10;99.90;;;;;;5036507;28;20438;-89
2022/06/13 06:33:46;;;;;;;3.27;2.17;;;;;;;;;;5037634;28;20502;-91
2022/06/13 06:36:19;;;;;;;3.03;2.03;;;18.40;99.90;;;;;;5036285;28;20451;-90
2022/06/13 06:38:47;;;;;;;6.20;2.80;;;;;;;;;;5036289;28;20454;-89
2022/06/13 06:41:14;;;;;;;3.67;2.53;;;;;;;;;;5034658;28;20444;-86
2022/06/13 06:43:42;;;;;;;2.70;2.30;;;;;;;;;;5034553;28;20494;-87
2022/06/13 06:46:09;;;;;;;3.13;2.30;;;;;;;;;;5034514;28;20443;-90
2022/06/13 06:48:37;;;;;;;2.70;2.40;;;18.90;99.90;;;;;;5034478;28;20820;-88
2022/06/13 06:51:06;;;;;;;2.67;2.30;;;18.70;99.90;;;;;;5032828;28;20494;-87
2022/06/13 07:01:44;;;;;;;3.10;1.97;;;;;;;;;;5027016;28;20489;-86
2022/06/13 07:04:12;;;;;;;3.03;1.93;;;19.20;99.90;;;;;;5030977;28;20490;-88
2022/06/13 07:06:39;;;;;;;3.10;2.10;;;;;;;;;;5027732;28;20847;-86
2022/06/13 07:09:07;;;;;;;2.53;1.83;;;;;;;;;;5033851;28;20825;-89
2022/06/13 07:14:19;;;;;;;4.50;2.30;;;;;;;;;;5033592;28;20434;-88
2022/06/13 07:16:46;;;;;;;4.43;2.30;;;;;;;;;;5033784;28;20450;-90
2022/06/13 07:19:14;;;;;;;4.30;2.43;;;19.90;99.90;;;;;;5033725;28;20527;-89
2022/06/13 07:21:42;;;;;;;3.57;2.10;;;;;;;;;;5029380;28;20515;-88
2022/06/13 07:24:10;;;;;;;6.10;1.87;;;;;;;;;;5033468;28;20498;-88
2022/06/13 07:26:37;;;;;;;3.80;2.20;;;;;;;;;;5033520;28;20934;-89
2022/06/13 07:29:04;;;;;;;4.10;2.50;;;;;;;;;;5033693;28;20852;-91
2022/06/13 07:31:36;;;;;;;7.27;2.70;;;20.40;99.90;;;;;;5033982;28;20439;-88
2022/06/13 07:34:03;;;;;;;4.50;2.60;;;;;;;;;;5032598;28;20451;-90
2022/06/13 07:36:31;;;;;;;2.40;1.93;;;21.00;99.90;;;;;;5032360;28;20439;-90
2022/06/13 07:38:58;;;;;;;4.57;2.17;;;;;;;;;;5029015;28;20467;-88
2022/06/13 07:41:26;;;;;;;2.47;2.10;;;21.00;99.70;;;;;;5019774;28;20654;-88
2022/06/13 07:43:55;;;;;;;6.27;2.10;;;20.90;99.40;;;;;;5033712;28;20479;-88
2022/06/13 07:46:27;;;;;;;2.90;2.13;;;21.00;99.10;;;;;;5015230;28;20818;-89
2022/06/13 07:48:54;;;;;;;2.23;1.60;;;;;;;;;;5024314;28;20455;-93
2022/06/13 07:51:22;;;;;;;4.80;2.20;;;;;;;;;;5020257;28;20449;-83
2022/06/13 07:53:50;;;;;;;5.17;2.20;;;21.30;99.50;;;;;;5013115;28;20445;-80
2022/06/13 07:56:19;;;;;;;3.43;1.83;;;21.00;97.90;;;;;;5013117;28;20440;-79
2022/06/13 07:58:48;;;;;;;6.33;2.83;;;20.60;99.30;;;;;;5013177;28;20455;-79
2022/06/13 08:01:16;;;;;;;2.67;1.83;;;;;;;;;;5012972;28;20483;-80
2022/06/13 08:03:43;;;;;;;3.77;1.70;;;;;;;;;;5018316;28;20934;-78
2022/06/13 08:06:10;;;;;;;3.13;1.90;;;;;;;;;;5022374;28;20472;-79
2022/06/13 08:08:40;;;;;;;3.17;1.90;;;;;;;;;;5032452;28;20439;-81
2022/06/13 08:11:10;;;;;;;2.83;2.33;;;20.70;99.40;;;;;;5025315;28;20478;-89
2022/06/13 08:13:39;;;;;;;2.17;1.97;;;21.20;95.80;;;;;;5019923;28;20459;-90
2022/06/13 08:16:07;;;;;;;3.10;2.10;;;;;;;;;;5009901;28;20814;-90
2022/06/13 08:18:34;;;;;;;3.10;2.10;;;;;;;;;;5010600;28;20444;-89
2022/06/13 08:21:01;;;;;;;4.60;2.03;;;;;;;;;;5017805;28;21006;-92
2022/06/13 08:23:28;;;;;;;2.40;1.90;;;;;;;;;;5017963;28;20456;-92
2022/06/13 08:25:56;;;;;;;3.30;2.00;;;;;;;;;;5036478;28;20442;-93
2022/06/13 08:28:24;;;;;;;4.90;2.20;;;21.40;96.50;;;;;;5021281;28;20468;-87
2022/06/13 08:30:53;;;;;;;4.60;2.37;;;21.10;96.20;;;;;;5034253;28;20502;-87
2022/06/13 08:33:21;;;;;;;3.53;1.90;;;22.20;96.50;;;;;;5025805;28;20448;-88
2022/06/13 08:35:49;;;;;;;7.80;2.53;;;22.70;93.50;;;;;;5021241;28;20463;-87
2022/06/13 08:38:17;;;;;;;2.90;1.97;;;;;;;;;;5016996;28;20517;-87
2022/06/13 08:40:49;;;;;;;4.27;2.10;;;22.50;93.30;;;;;;5016968;28;20448;-88
2022/06/13 08:43:39;;;;;;;4.83;2.83;;;22.20;92.50;;;;;;5010244;28;20440;-93
2022/06/13 08:46:15;;;;;;;6.17;2.50;;;22.60;93.10;;;;;;5022743;28;20474;-86
2022/06/13 08:48:45;;;;;;;3.00;2.60;;;23.00;93.90;;;;;;5036265;28;20454;-88
2022/06/13 08:51:16;;;;;;;7.80;3.10;;;23.10;91.70;;;;;;5035343;28;20475;-88
2022/06/13 08:53:52;;;;;;;3.90;2.47;;;23.10;93.40;;;;;;5033398;28;21002;-91
2022/06/13 08:56:21;;;;;;;3.07;2.10;;;23.90;92.30;;;;;;5036200;28;20443;-89
2022/06/13 08:58:54;;;;;;;5.97;2.47;;;23.40;93.80;;;;;;5032862;28;20474;-92
2022/06/13 09:01:29;;;;;;;6.33;2.53;;;22.90;94.90;;;;;;5038383;28;20486;-90
2022/06/13 09:04:06;;;;;;;3.53;2.30;;;23.60;94.30;;;;;;5036461;28;20848;-85
2022/06/13 09:06:40;;;;;;;7.40;3.03;;;22.70;93.40;;;;;;5034914;28;20927;-87
2022/06/13 09:09:13;;;;;;;3.13;2.77;;;22.20;95.50;;;;;;5036372;28;20452;-86
2022/06/13 09:11:45;;;;;;;3.33;2.07;;;22.40;96.80;;;;;;5036238;28;20462;-90
2022/06/13 09:14:19;;;;;;;3.13;2.37;;;23.20;95.70;;;;;;5029979;28;20455;-89
2022/06/13 09:16:52;;;;;;;2.90;2.00;;;22.80;94.80;;;;;;5036432;28;20448;-92
2022/06/13 09:19:25;;;;;;;5.73;2.40;;;23.10;97.10;;;;;;5036087;28;20447;-87
2022/06/13 09:21:56;;;;;;;3.10;2.73;;;23.00;96.70;;;;;;5031711;28;20444;-88
2022/06/13 09:24:29;;;;;;;5.37;2.63;;;22.90;98.90;;;;;;5035660;28;20490;-90
2022/06/13 09:27:03;;;;;;;2.97;2.00;;;22.70;98.90;;;;;;5035480;28;20828;-88
2022/06/13 09:29:38;;;;;;;5.53;3.10;;;21.90;99.30;;;;;;5035615;28;20450;-87
2022/06/13 09:32:11;;;;;;;3.40;2.70;;;22.60;99.90;;;;;;5035201;28;20957;-86
2022/06/13 09:34:44;;;;;;;2.90;2.40;;;22.90;97.60;;;;;;5035214;28;20814;-86
2022/06/13 09:37:13;;;;;;;3.90;2.70;;;23.00;96.50;;;;;;5034311;28;20459;-86
2022/06/13 09:39:42;;;;;;;4.00;2.40;;;23.00;96.30;;;;;;5032286;28;20792;-89
2022/06/13 09:42:30;;;;;;;4.67;3.10;;;23.20;99.50;;;;;;5035062;28;20443;-90
2022/06/13 09:45:08;;;;;;;3.57;2.93;;;;;;;;;;5032123;28;20491;-93
2022/06/13 09:47:42;;;;;;;6.57;3.70;;;22.80;95.30;;;;;;5035278;28;20467;-90
2022/06/13 09:50:13;;;;;;;4.43;3.30;;;;;;;;;;5035108;28;20443;-89
2022/06/13 09:52:44;;;;;;;2.73;2.30;;;;;;;;;;5035192;28;20487;-87
2022/06/13 09:55:19;;;;;;;3.50;2.23;;;23.00;95.90;;;;;;5035211;28;20455;-88
2022/06/13 09:57:53;;;;;;;3.40;3.10;;;23.20;98.20;;;;;;5035687;28;20454;-88
2022/06/13 10:00:28;;;;;;;4.07;3.17;;;24.10;97.30;;;;;;5033136;28;20858;-90
2022/06/13 10:03:05;;;;;;;4.70;4.30;;;24.20;97.80;;;;;;5015310;28;20935;-87
2022/06/13 10:05:36;;;;;;;11.63;10.40;;;23.90;98.60;;;;;;5013821;28;20496;-87
2022/06/13 10:08:23;;;;;;;13.63;8.40;;;;;;;;;;5015075;28;20449;-91
2022/06/13 10:10:58;;;;;;;4.90;3.53;;;24.20;95.00;;;;;;5015023;28;20444;-87
2022/06/13 10:13:34;;;;;;;3.03;2.00;;;24.60;92.80;;;;;;5015051;28;20447;-87
2022/06/13 10:16:10;;;;;;;2.70;1.97;;;24.40;92.80;;;;;;5009302;28;20452;-87
2022/06/13 10:18:50;;;;;;;4.30;2.07;;;23.50;92.30;;;;;;5015719;28;20456;-92
2022/06/13 10:21:23;;;;;;;2.47;1.50;;;22.90;92.80;;;;;;5016730;28;20460;-92
2022/06/13 10:24:09;;;;;;;1.87;1.70;;;23.00;92.60;;;;;;5016749;28;20479;-90
2022/06/13 10:26:41;;;;;;;6.20;2.33;;;;;;;;;;5018340;28;20502;-90
2022/06/13 10:29:19;;;;;;;2.03;1.40;;;;;;;;;;5020321;28;20449;-91
2022/06/13 10:31:54;;;;;;;5.27;2.30;;;;;;;;;;5014032;28;20458;-90
2022/06/13 10:34:26;;;;;;;2.43;2.10;;;;;;;;;;5016698;28;20455;-91
2022/06/13 10:37:06;;;;;;;6.13;3.70;;;23.00;93.30;;;;;;5016375;28;20799;-92
2022/06/13 10:39:33;;;;;;;3.53;1.90;;;;;;;;;;5015645;28;20495;-93
2022/06/13 10:42:03;;;;;;;2.30;1.67;;;;;;;;;;5016606;28;20962;-94
2022/06/13 10:44:30;;;;;;;8.23;1.73;;;;;;;;;;5020905;28;20527;-92
2022/06/13 10:47:03;;;;;;;3.60;2.73;;;;;;;;;;5014147;28;20468;-90
2022/06/13 10:49:36;;;;;;;4.47;1.60;;;23.10;95.10;;;;;;5017850;28;20441;-93
2022/06/13 10:52:05;;;;;;;1.83;1.27;;;;;;;;;;5019350;28;20456;-91
2022/06/13 10:54:37;;;;;;;3.73;1.50;;;23.70;93.40;;;;;;5024608;28;20452;-93
2022/06/13 10:57:07;;;;;;;2.00;1.60;;;;;;;;;;5022588;28;20940;-92
2022/06/13 10:59:35;;;;;;;3.70;2.40;;;;;;;;;;5015364;28;20463;-94
2022/06/13 11:02:05;;;;;;;3.80;2.47;;;;;;;;;;5029911;28;20479;-91
2022/06/13 11:04:33;;;;;;;3.53;2.57;;;;;;;;;;5036432;28;20483;-87
2022/06/13 11:07:01;;;;;;;2.60;1.93;;;;;;;;;;5035988;28;20459;-91
2022/06/13 11:09:36;;;;;;;3.20;1.53;;;23.20;90.60;;;;;;5034639;28;20447;-91
2022/06/13 11:12:14;;;;;;;2.27;1.47;;;24.20;90.30;;;;;;5032086;28;20444;-90
2022/06/13 11:22:37;;;;;;;1.80;1.70;;;;;;;;;;5034377;28;20450;-92
2022/06/13 11:23:09;;;;;;;6.27;4.30;;;;;;;;;;5033830;28;20434;-91
2022/06/13 11:25:37;;;;;;;3.57;2.30;;;;;;;;;;5034156;28;20486;-93
2022/06/13 11:28:08;;;;;;;5.63;2.00;;;22.60;87.50;;;;;;5032045;28;20470;-92
2022/06/13 11:30:47;;;;;;;4.07;1.97;;;23.10;94.30;;;;;;5030575;28;20439;-91
2022/06/13 11:33:27;;;;;;;3.90;2.30;;;;;;;;;;5037820;28;20451;-92
2022/06/13 11:35:56;;;;;;;2.63;1.97;;;24.10;90.40;;;;;;5033971;28;20436;-91
2022/06/13 11:38:25;;;;;;;2.77;2.30;;;23.90;90.40;;;;;;5036833;28;20455;-94
2022/06/13 11:41:02;;;;;;;4.40;1.97;;;;;;;;;;5037074;28;20458;-88
2022/06/13 11:43:36;;;;;;;5.33;3.03;;;23.50;90.80;;;;;;5037052;28;20443;-93
2022/06/13 11:46:06;;;;;;;1.50;1.40;;;23.70;88.40;;;;;;5016930;28;20483;-94
2022/06/13 11:48:35;;;;;;;3.73;3.30;;;;;;;;;;5024515;28;20439;-93
2022/06/13 11:51:06;;;;;;;2.90;1.70;;;23.90;88.20;;;;;;5033058;28;20455;-95
2022/06/13 11:53:36;;;;;;;4.63;3.37;;;;;;;;;;5037637;28;20811;-94
2022/06/13 11:56:08;;;;;;;21.77;20.17;;;;;;;;;;5037597;28;20447;-91
2022/06/13 11:58:41;;;;;;;13.30;7.13;;;;;;;;;;5047382;28;20469;-93
2022/06/13 12:01:18;;;;;;;7.90;6.97;;;;;;;;;;5051774;22;20561;-92
2022/06/13 12:03:50;;;;;;;7.20;5.07;;;;;;;;;;5041732;28;20491;-86
2022/06/13 12:06:23;;;;;;;6.97;3.40;;;22.40;95.20;;;;;;5055001;28;20489;-89
2022/06/13 12:08:51;;;;;;;6.40;5.17;;;;;;;;;;5061290;28;20452;-90
2022/06/13 12:11:23;;;;;;;2.30;1.73;;;22.50;92.10;;;;;;5056089;28;20520;-87
2022/06/13 12:13:52;;;;;;;2.97;2.20;;;22.10;90.70;;;;;;5040631;28;20534;-92
2022/06/13 12:16:30;;;;;;;4.10;3.10;;;22.80;90.10;;;;;;5026316;28;20447;-90
2022/06/13 12:19:10;;;;;;;6.03;5.50;;;23.60;92.50;;;;;;5037370;28;20439;-91
2022/06/13 12:21:40;;;;;;;25.83;24.00;;;;;;;;;;5037188;28;20451;-92
2022/06/13 12:24:12;;;;;;;6.10;4.03;;;;;;;;;;5034372;28;20448;-89
2022/06/13 12:26:42;;;;;;;1.33;1.20;;;;;;;;;;5036809;28;20490;-91
2022/06/13 12:29:17;;;;;;;5.77;5.27;;;;;;;;;;5034693;28;20460;-90
2022/06/13 12:31:48;;;;;;;4.93;4.63;;;;;;;;;;5034297;28;20542;-91
2022/06/13 12:34:24;;;;;;;2.43;1.87;;;23.70;89.80;;;;;;5051724;28;20445;-89
2022/06/13 12:37:01;;;;;;;2.57;2.10;;;23.90;92.20;;;;;;5046254;28;20443;-92
2022/06/13 12:39:51;;;;;;;1.50;1.40;;;23.80;71.80;;;;;;5031787;28;20435;-92
2022/06/13 12:42:51;;;;;;;2.33;1.70;;;23.50;67.30;;;;;;5030430;28;20459;-89
2022/06/13 12:45:43;;;;;;;2.27;1.40;;;23.90;68.10;;;;;;5035722;28;20848;-88
2022/06/13 12:48:26;;;;;;;2.80;1.40;;;23.00;74.10;;;;;;5033905;28;20459;-90
2022/06/13 12:51:15;;;;;;;1.63;1.50;;;22.50;76.30;;;;;;5036768;28;20490;-92
2022/06/13 12:54:06;;;;;;;1.43;1.33;;;23.20;67.80;;;;;;5035257;28;20855;-88
2022/06/13 12:56:40;;;;;;;2.20;1.77;;;24.10;77.90;;;;;;5034336;28;20443;-92
2022/06/13 12:59:21;;;;;;;2.77;1.60;;;23.60;74.90;;;;;;5035025;28;20444;-91
2022/06/13 13:02:02;;;;;;;1.73;1.50;;;22.90;73.40;;;;;;5027806;28;20471;-90
2022/06/13 13:04:49;;;;;;;2.70;1.73;;;23.10;75.00;;;;;;5030014;28;20435;-88
2022/06/13 13:07:26;;;;;;;2.37;1.70;;;23.70;76.80;;;;;;5030141;28;20462;-90
2022/06/13 13:10:32;;;;;;;2.57;1.90;;;24.70;71.70;;;;;;5038458;28;20446;-89
2022/06/13 13:13:19;;;;;;;1.60;1.43;;;23.60;74.50;;;;;;5036601;28;20810;-93
2022/06/13 13:15:53;;;;;;;1.80;1.17;;;23.60;70.00;;;;;;5033857;28;20467;-86
2022/06/13 13:18:32;;;;;;;2.40;1.43;;;23.20;68.50;;;;;;5035073;28;20482;-94
2022/06/13 13:21:07;;;;;;;2.30;1.60;;;22.70;67.50;;;;;;5014240;28;20444;-91
2022/06/13 13:23:44;;;;;;;5.13;1.40;;;23.10;67.50;;;;;;5023887;28;20473;-90
2022/06/13 13:26:23;;;;;;;2.53;1.13;;;23.30;67.10;;;;;;5031194;28;20491;-91
2022/06/13 13:29:02;;;;;;;1.57;1.27;;;23.00;67.40;;;;;;5035600;28;20927;-92
2022/06/13 13:31:35;;;;;;;4.47;1.63;;;22.80;65.90;;;;;;5033968;28;20436;-93
2022/06/13 13:34:18;;;;;;;1.30;0.97;;;23.10;65.80;;;;;;4999312;28;21046;-91
2022/06/13 13:36:52;;;;;;;4.03;1.20;;;23.40;70.10;;;;;;5003000;28;20457;-90
2022/06/13 13:39:32;;;;;;;1.20;1.07;;;24.20;65.20;;;;;;5001966;28;20453;-92
2022/06/13 13:42:06;;;;;;;1.10;1.00;;;24.20;67.60;;;;;;4996704;28;20854;-93
2022/06/13 13:44:40;;;;;;;1.20;1.00;;;24.60;66.40;;;;;;4996435;28;20469;-91
2022/06/13 13:47:14;;;;;;;1.63;1.23;;;24.90;71.60;;;;;;4993451;28;20488;-92
2022/06/13 13:49:45;;;;;;;2.60;1.80;;;25.10;72.00;;;;;;4995846;28;20461;-93
2022/06/13 13:52:17;;;;;;;2.60;1.67;;;25.00;68.80;;;;;;5018714;28;20444;-91
2022/06/13 13:54:51;;;;;;;1.63;1.20;;;25.00;74.20;;;;;;5036299;28;20451;-93
2022/06/13 13:57:22;;;;;;;5.43;1.70;;;25.10;68.90;;;;;;5008188;28;20455;-95
2022/06/13 13:59:53;;;;;;;12.67;6.57;;;24.90;67.60;;;;;;5036204;28;20455;-94
2022/06/13 14:02:36;;;;;;;2.87;1.60;;;23.60;67.50;;;;;;5041554;28;20439;-96
2022/06/13 14:05:17;;;;;;;24.67;8.93;;;23.40;70.00;;;;;;5037337;28;20439;-95
2022/06/13 14:08:05;;;;;;;4.63;2.00;;;24.00;68.80;;;;;;5035481;28;20436;-94
2022/06/13 14:10:42;;;;;;;6.33;1.80;;;24.30;64.10;;;;;;5033253;28;20435;-93